Time;durP1;ratioP1;P1;durP2;ratioP2;P2;SDS_P1;SDS_P2;PMS_P1;PMS_P2;Temp;Humidity;BMP_temperature;BMP_pressure;BME280_temperature;BME280_humidity;BME280_pressure;Samples;Min_cycle;Max_cycle;Signal;HPM_P1;HPM_P2
2021/03/30 00:01:06;;;;;;;1.27;0.85;;;;;;;;;;5015693;28;20034;-74
2021/03/30 00:03:32;;;;;;;1.92;0.80;;;;;;;;;;5015020;28;20026;-73
2021/03/30 00:05:57;;;;;;;1.17;0.60;;;;;;;;;;5015328;28;20473;-74
2021/03/30 00:08:23;;;;;;;1.70;0.87;;;;;;;;;;5015073;28;20052;-73
2021/03/30 00:10:48;;;;;;;1.27;0.70;;;;;;;;;;5014840;28;20037;-73
2021/03/30 00:13:13;;;;;;;1.10;0.60;;;;;;;;;;5032734;28;20056;-72
2021/03/30 00:15:39;;;;;;;1.60;0.73;;;;;;;;;;5031305;28;20464;-72
2021/03/30 00:18:04;;;;;;;1.17;0.63;;;;;;;;;;5031392;28;20104;-73
2021/03/30 00:20:29;;;;;;;1.53;0.70;;;;;;;;;;5031164;28;20434;-72
2021/03/30 00:22:55;;;;;;;1.27;0.70;;;;;;;;;;5014792;28;20072;-73
2021/03/30 00:25:20;;;;;;;1.00;0.50;;;;;;;;;;5015064;28;20045;-73
2021/03/30 00:27:46;;;;;;;1.37;0.70;;;;;;;;;;5014945;28;20025;-73
2021/03/30 00:30:11;;;;;;;1.17;0.60;;;;;;;;;;5014791;28;20480;-73
2021/03/30 00:32:37;;;;;;;1.77;0.73;;;;;;;;;;4998389;28;20025;-73
2021/03/30 00:35:03;;;;;;;1.20;0.60;;;;;;;;;;5015051;28;20620;-73
2021/03/30 00:37:29;;;;;;;1.77;0.80;;;;;;;;;;5014644;28;20140;-73
2021/03/30 00:39:54;;;;;;;1.53;0.73;;;;;;;;;;4998475;28;20061;-73
2021/03/30 00:42:24;;;;;;;1.47;0.73;;;;;;;;;;5014618;28;20519;-74
2021/03/30 00:44:50;;;;;;;1.40;0.80;;;;;;;;;;4999145;28;20103;-73
2021/03/30 00:47:15;;;;;;;1.83;0.63;;;;;;;;;;5014893;28;20049;-73
2021/03/30 00:49:41;;;;;;;1.63;0.70;;;;;;;;;;4997964;28;20025;-73
2021/03/30 00:52:06;;;;;;;2.03;0.70;;;;;;;;;;4998538;28;20396;-73
2021/03/30 00:54:32;;;;;;;1.17;0.77;;;;;;;;;;5031531;28;20116;-73
2021/03/30 00:56:58;;;;;;;0.93;0.73;;;;;;;;;;5014666;28;20092;-73
2021/03/30 00:59:23;;;;;;;1.30;0.60;;;;;;;;;;5014425;28;20080;-73
2021/03/30 01:01:48;;;;;;;1.90;0.73;;;;;;;;;;5018322;28;20068;-74
2021/03/30 01:04:14;;;;;;;1.63;0.70;;;;;;;;;;5001571;28;20103;-73
2021/03/30 01:06:39;;;;;;;2.23;0.77;;;;;;;;;;5018045;28;20080;-73
2021/03/30 01:09:20;;;;;;;1.47;0.70;;;;;;;;;;5001498;28;20036;-73
2021/03/30 01:11:54;;;;;;;1.30;0.68;;;;;;;;;;5034581;28;20036;-73
2021/03/30 01:14:29;;;;;;;1.65;0.65;;;;;;;;;;5018096;28;20025;-73
2021/03/30 01:17:22;;;;;;;1.48;0.70;;;;;;;;;;5017946;28;20033;-73
2021/03/30 01:20:13;;;;;;;2.08;1.00;;;;;;;;;;5017658;28;20599;-73
2021/03/30 01:23:03;;;;;;;1.20;0.70;;;;;;;;;;5028224;28;20034;-73
2021/03/30 01:25:28;;;;;;;2.65;0.70;;;;;;;;;;5017408;28;20025;-73
2021/03/30 01:28:15;;;;;;;2.37;0.80;;;;;;;;;;5001537;28;20087;-74
2021/03/30 01:30:40;;;;;;;2.17;0.90;;;;;;;;;;5017419;28;20060;-73
2021/03/30 01:33:09;;;;;;;1.10;0.70;;;;;;;;;;5017692;28;20068;-73
2021/03/30 01:35:34;;;;;;;1.10;0.68;;;;;;;;;;5017575;28;20112;-73
2021/03/30 01:37:59;;;;;;;1.97;0.70;;;;;;;;;;5017627;28;20159;-73
2021/03/30 01:40:30;;;;;;;2.00;0.80;;;;;;;;;;5017181;28;20049;-73
2021/03/30 01:42:55;;;;;;;0.90;0.52;;;;;;;;;;5033734;28;20025;-74
2021/03/30 01:45:21;;;;;;;1.57;0.70;;;;;;;;;;5017331;28;20052;-73
2021/03/30 01:47:47;;;;;;;1.45;0.80;;;;;;;;;;5000962;28;20056;-73
2021/03/30 01:50:12;;;;;;;1.17;0.70;;;;;;;;;;4984701;28;20034;-73
2021/03/30 01:52:38;;;;;;;1.20;0.60;;;;;;;;;;5017281;28;20025;-73
2021/03/30 01:55:04;;;;;;;1.70;0.83;;;;;;;;;;5000557;28;20590;-73
2021/03/30 01:57:30;;;;;;;1.77;0.60;;;;;;;;;;5016894;28;20029;-73
2021/03/30 01:59:56;;;;;;;1.00;0.52;;;;;;;;;;5016832;28;20032;-73
2021/03/30 02:02:21;;;;;;;2.07;0.90;;;;;;;;;;5017110;28;20025;-73
2021/03/30 02:04:49;;;;;;;0.90;0.60;;;;;;;;;;5017146;28;20041;-73
2021/03/30 02:07:15;;;;;;;1.33;0.65;;;;;;;;;;5016982;28;20025;-73
2021/03/30 02:09:43;;;;;;;1.30;0.77;;;;;;;;;;5000311;28;20411;-73
2021/03/30 02:12:12;;;;;;;3.13;0.70;;;;;;;;;;5017157;28;20026;-73
2021/03/30 02:14:38;;;;;;;3.97;0.93;;;;;;;;;;5017594;28;20408;-72
2021/03/30 02:17:11;;;;;;;1.07;0.70;;;;;;;;;;5016486;28;20033;-73
2021/03/30 02:19:52;;;;;;;1.38;0.70;;;;;;;;;;5033180;28;20109;-73
2021/03/30 02:22:50;;;;;;;1.02;0.57;;;;;;;;;;5016389;28;20033;-73
2021/03/30 02:25:15;;;;;;;1.55;0.70;;;;;;;;;;5000822;28;20431;-73
2021/03/30 02:27:41;;;;;;;1.57;0.73;;;;;;;;;;5000364;28;20057;-74
2021/03/30 02:30:08;;;;;;;1.02;0.60;;;;;;;;;;5016466;28;20461;-74
2021/03/30 02:32:33;;;;;;;1.77;0.65;;;;;;;;;;5016111;28;20120;-73
2021/03/30 02:34:58;;;;;;;1.27;0.60;;;;;;;;;;5016674;28;20112;-74
2021/03/30 02:37:24;;;;;;;1.60;0.80;;;;;;;;;;5000004;28;20032;-74
2021/03/30 02:39:49;;;;;;;1.33;0.70;;;;;;;;;;5016284;28;20043;-73
2021/03/30 02:42:15;;;;;;;1.37;0.73;;;;;;;;;;5016323;28;20060;-73
2021/03/30 02:44:40;;;;;;;1.00;0.70;;;;;;;;;;5016155;28;20037;-73
2021/03/30 02:47:06;;;;;;;1.67;0.70;;;;;;;;;;4999720;28;20060;-73
2021/03/30 02:49:31;;;;;;;1.10;0.70;;;;;;;;;;4999702;28;20022;-73
2021/03/30 02:51:57;;;;;;;1.47;0.77;;;;;;;;;;5016166;28;20112;-73
2021/03/30 02:54:23;;;;;;;1.30;0.80;;;;;;;;;;5016145;28;20025;-73
2021/03/30 02:56:48;;;;;;;1.30;0.77;;;;;;;;;;5016185;28;20499;-74
2021/03/30 02:59:14;;;;;;;1.20;0.70;;;;;;;;;;4999374;28;20032;-74
2021/03/30 03:01:39;;;;;;;1.00;0.70;;;;;;;;;;5015959;28;20477;-73
2021/03/30 03:04:05;;;;;;;2.10;0.70;;;;;;;;;;5016035;28;20043;-74
2021/03/30 03:06:31;;;;;;;1.20;0.60;;;;;;;;;;5015748;28;20024;-74
2021/03/30 03:08:56;;;;;;;1.13;0.70;;;;;;;;;;5015895;28;20025;-74
2021/03/30 03:11:21;;;;;;;1.07;0.70;;;;;;;;;;5015470;28;20116;-73
2021/03/30 03:13:48;;;;;;;1.40;0.70;;;;;;;;;;5032157;28;20053;-73
2021/03/30 03:16:13;;;;;;;0.88;0.52;;;;;;;;;;5015625;28;20033;-73
2021/03/30 03:18:42;;;;;;;1.60;0.80;;;;;;;;;;4999394;28;20116;-74
2021/03/30 03:21:08;;;;;;;1.23;0.70;;;;;;;;;;5015581;28;20026;-74
2021/03/30 03:23:33;;;;;;;1.25;0.60;;;;;;;;;;5015047;28;20036;-74
2021/03/30 03:25:59;;;;;;;1.20;0.67;;;;;;;;;;5015768;28;20061;-74
2021/03/30 03:28:24;;;;;;;1.53;0.50;;;;;;;;;;5000102;28;20049;-74
2021/03/30 03:30:49;;;;;;;1.67;0.70;;;;;;;;;;5031860;28;20056;-73
2021/03/30 03:33:15;;;;;;;1.23;0.60;;;;;;;;;;5031711;28;20441;-74
2021/03/30 03:35:41;;;;;;;2.20;0.87;;;;;;;;;;5016031;28;20116;-75
2021/03/30 03:38:06;;;;;;;1.65;0.60;;;;;;;;;;5015372;28;20025;-74
2021/03/30 03:40:32;;;;;;;0.93;0.67;;;;;;;;;;4998568;28;20048;-73
2021/03/30 03:42:58;;;;;;;1.67;0.70;;;;;;;;;;4998351;28;20514;-73
2021/03/30 03:45:23;;;;;;;1.40;0.80;;;;;;;;;;5028538;23;20571;-76
2021/03/30 03:47:48;;;;;;;0.87;0.50;;;;;;;;;;4998931;28;20032;-76
2021/03/30 03:50:14;;;;;;;1.63;0.80;;;;;;;;;;4998760;28;20029;-76
2021/03/30 03:52:48;;;;;;;1.17;0.60;;;;;;;;;;5015365;28;20120;-76
2021/03/30 03:55:14;;;;;;;1.40;0.70;;;;;;;;;;4999162;28;20077;-76
2021/03/30 03:57:47;;;;;;;1.70;0.60;;;;;;;;;;4982849;28;20476;-76
2021/03/30 04:00:13;;;;;;;1.63;0.85;;;;;;;;;;5032755;28;20424;-76
2021/03/30 04:02:45;;;;;;;1.57;0.80;;;;;;;;;;4982866;28;20036;-76
2021/03/30 04:05:15;;;;;;;1.30;0.70;;;;;;;;;;4982640;28;20033;-76
2021/03/30 04:07:55;;;;;;;2.03;0.70;;;;;;;;;;4999007;28;20436;-76
2021/03/30 04:10:25;;;;;;;1.70;0.75;;;;;;;;;;4998852;28;20037;-76
2021/03/30 04:12:50;;;;;;;1.10;0.60;;;;;;;;;;5012389;28;20017;-76
2021/03/30 04:15:16;;;;;;;0.93;0.70;;;;;;;;;;4988071;28;20526;-76
2021/03/30 04:17:41;;;;;;;1.35;0.65;;;;;;;;;;4979283;28;20026;-75
2021/03/30 04:20:10;;;;;;;1.90;0.77;;;;;;;;;;5014816;28;20031;-76
2021/03/30 04:22:36;;;;;;;1.55;0.75;;;;;;;;;;4982808;28;20021;-76
2021/03/30 04:25:01;;;;;;;1.10;0.63;;;;;;;;;;5013079;28;20029;-76
2021/03/30 04:27:26;;;;;;;1.07;0.47;;;;;;;;;;4998538;28;20381;-76
2021/03/30 04:29:52;;;;;;;1.30;0.70;;;;;;;;;;4996799;28;20433;-78
2021/03/30 04:32:17;;;;;;;2.23;0.70;;;;;;;;;;5031869;28;20029;-76
2021/03/30 04:34:42;;;;;;;1.27;0.70;;;;;;;;;;5033521;28;20067;-76
2021/03/30 04:37:08;;;;;;;1.23;0.67;;;;;;;;;;5002313;28;20507;-76
2021/03/30 04:39:33;;;;;;;1.60;0.73;;;;;;;;;;5035915;28;20487;-76
2021/03/30 04:41:58;;;;;;;1.67;0.80;;;;;;;;;;5001715;28;20052;-76
2021/03/30 04:44:24;;;;;;;1.10;0.70;;;;;;;;;;5001954;28;20061;-76
2021/03/30 04:46:49;;;;;;;1.70;0.90;;;;;;;;;;5036981;28;20056;-76
2021/03/30 04:49:14;;;;;;;2.43;0.63;;;;;;;;;;5018422;28;20035;-76
2021/03/30 04:51:40;;;;;;;1.30;0.67;;;;;;;;;;5001770;28;20116;-76
2021/03/30 04:54:05;;;;;;;1.27;0.60;;;;;;;;;;5002300;28;20087;-76
2021/03/30 04:56:31;;;;;;;1.87;0.90;;;;;;;;;;5036287;28;20033;-76
2021/03/30 04:58:56;;;;;;;1.07;0.70;;;;;;;;;;5001877;28;20071;-76
2021/03/30 05:01:21;;;;;;;1.37;0.70;;;;;;;;;;5018270;28;20067;-76
2021/03/30 05:03:46;;;;;;;1.50;0.77;;;;;;;;;;5017922;28;20053;-76
2021/03/30 05:06:12;;;;;;;1.23;0.80;;;;;;;;;;5018375;28;20053;-76
2021/03/30 05:08:37;;;;;;;1.50;0.70;;;;;;;;;;5018359;28;20091;-76
2021/03/30 05:11:03;;;;;;;1.83;0.80;;;;;;;;;;5035463;28;20056;-76
2021/03/30 05:13:28;;;;;;;1.23;0.70;;;;;;;;;;5017816;28;20499;-76
2021/03/30 05:15:53;;;;;;;1.50;0.80;;;;;;;;;;5035876;28;20049;-76
2021/03/30 05:18:19;;;;;;;1.60;0.80;;;;;;;;;;5035407;28;20465;-76
2021/03/30 05:20:44;;;;;;;1.50;0.73;;;;;;;;;;5001461;28;20117;-76
2021/03/30 05:23:09;;;;;;;1.93;0.87;;;;;;;;;;5001518;28;20027;-76
2021/03/30 05:25:36;;;;;;;1.20;0.70;;;;;;;;;;5017629;28;20047;-75
2021/03/30 05:28:01;;;;;;;;;;;;;;;;;;5018230;28;20029;-75
2021/03/30 05:30:27;;;;;;;1.30;0.50;;;;;;;;;;5035204;28;19913;-76
2021/03/30 05:32:52;;;;;;;1.43;0.70;;;;;;;;;;4985206;28;20396;-75
2021/03/30 05:35:17;;;;;;;1.10;0.73;;;;;;;;;;5017644;28;20040;-75
2021/03/30 05:37:43;;;;;;;1.40;0.80;;;;;;;;;;5017295;28;20112;-76
2021/03/30 05:40:10;;;;;;;3.23;1.10;;;;;;;;;;5000978;28;20021;-76
2021/03/30 05:42:35;;;;;;;2.00;0.80;;;;;;;;;;5001373;28;20049;-76
2021/03/30 05:45:01;;;;;;;1.73;0.80;;;;;;;;;;5001064;28;20060;-76
2021/03/30 05:47:28;;;;;;;1.70;0.80;;;;;;;;;;5000777;28;20411;-76
2021/03/30 05:49:54;;;;;;;1.42;0.80;;;;;;;;;;4985226;28;20030;-76
2021/03/30 05:52:44;;;;;;;1.23;0.70;;;;;;;;;;5000671;28;20125;-76
2021/03/30 05:55:11;;;;;;;1.60;0.90;;;;;;;;;;5018218;28;20031;-76
2021/03/30 05:57:37;;;;;;;1.25;0.80;;;;;;;;;;5017261;28;20026;-77
2021/03/30 06:00:03;;;;;;;1.33;0.80;;;;;;;;;;5000585;28;20033;-76
2021/03/30 06:02:41;;;;;;;1.30;0.80;;;;;;;;;;5001104;28;20399;-76
2021/03/30 06:05:07;;;;;;;1.90;0.98;;;;;;;;;;5017766;28;20132;-77
2021/03/30 06:07:36;;;;;;;1.20;0.60;;;;;;;;;;5006054;28;20017;-78
2021/03/30 06:10:01;;;;;;;1.77;0.80;;;;;;;;;;5006109;28;20025;-77
2021/03/30 06:12:26;;;;;;;1.30;0.70;;;;;;;;;;4991084;28;20456;-78
2021/03/30 06:14:52;;;;;;;2.23;0.90;;;;;;;;;;4987232;28;20047;-78
2021/03/30 06:17:17;;;;;;;2.50;1.00;;;;;;;;;;4988248;28;20072;-78
2021/03/30 06:19:54;;;;;;;2.17;0.90;;;;;;;;;;4988006;28;20108;-78
2021/03/30 06:22:20;;;;;;;1.50;0.90;;;;;;;;;;4987634;28;20480;-78
2021/03/30 06:24:46;;;;;;;;;;;;;;;;;;5004197;28;20542;-78
2021/03/30 06:27:37;;;;;;;1.33;0.80;;;;;;;;;;5006555;28;19909;-77
2021/03/30 06:30:04;;;;;;;1.05;0.70;;;;;;;;;;5018426;28;20280;-78
2021/03/30 06:32:30;;;;;;;2.05;0.90;;;;;;;;;;5006061;28;20029;-78
2021/03/30 06:35:09;;;;;;;1.23;0.80;;;;;;;;;;5006468;28;20039;-78
2021/03/30 06:37:39;;;;;;;2.28;0.90;;;;;;;;;;4989323;28;20021;-78
2021/03/30 06:40:09;;;;;;;1.25;0.70;;;;;;;;;;5003979;28;20032;-77
2021/03/30 06:42:40;;;;;;;1.10;0.70;;;;;;;;;;5020029;28;20109;-78
2021/03/30 06:45:32;;;;;;;1.70;0.90;;;;;;;;;;5021484;28;20091;-77
2021/03/30 06:48:00;;;;;;;1.70;1.00;;;;;;;;;;5017493;28;20033;-78
2021/03/30 06:50:30;;;;;;;2.08;0.90;;;;;;;;;;5005080;28;20048;-77
2021/03/30 06:52:56;;;;;;;1.83;0.90;;;;;;;;;;5007422;28;20408;-78
2021/03/30 06:55:26;;;;;;;2.30;0.80;;;;;;;;;;5004441;28;20061;-77
2021/03/30 06:57:52;;;;;;;1.58;0.80;;;;;;;;;;4987441;28;20029;-77
2021/03/30 07:00:34;;;;;;;1.40;0.80;;;;;;;;;;4980520;28;20042;-78
2021/03/30 07:03:05;;;;;;;1.23;0.70;;;;;;;;;;4986393;28;20022;-78
2021/03/30 07:05:34;;;;;;;1.50;0.80;;;;;;;;;;4985168;28;20036;-77
2021/03/30 07:08:19;;;;;;;2.17;0.90;;;;;;;;;;5001184;28;20052;-77
2021/03/30 07:10:50;;;;;;;1.40;0.70;;;;;;;;;;4968340;28;20057;-77
2021/03/30 07:13:17;;;;;;;1.58;0.75;;;;;;;;;;5000286;28;20025;-77
2021/03/30 07:15:42;;;;;;;1.75;0.90;;;;;;;;;;4983439;28;20029;-77
2021/03/30 07:18:24;;;;;;;1.53;0.73;;;;;;;;;;4983318;28;20029;-77
2021/03/30 07:20:59;;;;;;;1.48;0.80;;;;;;;;;;4983670;28;20370;-78
2021/03/30 07:23:32;;;;;;;2.92;0.90;;;;;;;;;;4983614;28;20049;-77
2021/03/30 07:26:10;;;;;;;1.27;0.80;;;;;;;;;;4968263;28;20026;-77
2021/03/30 07:29:02;;;;;;;2.10;0.90;;;;;;;;;;4982832;28;20029;-77
2021/03/30 07:31:46;;;;;;;2.05;0.88;;;;;;;;;;5025284;28;20108;-77
2021/03/30 07:34:18;;;;;;;1.73;0.70;;;;;;;;;;5012822;28;20029;-77
2021/03/30 07:36:48;;;;;;;1.40;0.90;;;;;;;;;;4996839;28;20065;-77
2021/03/30 07:39:16;;;;;;;1.35;0.88;;;;;;;;;;4979972;28;20026;-77
2021/03/30 07:41:41;;;;;;;1.63;0.80;;;;;;;;;;4991878;28;20121;-77
2021/03/30 07:44:07;;;;;;;1.70;1.00;;;;;;;;;;4964015;28;20068;-77
2021/03/30 07:46:32;;;;;;;1.47;0.80;;;;;;;;;;4979891;28;20025;-76
2021/03/30 07:48:58;;;;;;;1.07;0.60;;;;;;;;;;4995495;28;20088;-76
2021/03/30 07:51:31;;;;;;;1.73;0.88;;;;;;;;;;4982768;28;20121;-76
2021/03/30 07:54:13;;;;;;;1.10;0.75;;;;;;;;;;5005583;28;20030;-76
2021/03/30 07:56:38;;;;;;;1.92;0.85;;;;;;;;;;5007629;28;20038;-76
2021/03/30 07:59:03;;;;;;;1.30;0.80;;;;;;;;;;5025227;28;20029;-76
2021/03/30 08:01:29;;;;;;;1.47;0.83;;;;;;;;;;4981304;28;20128;-76
2021/03/30 08:03:55;;;;;;;1.37;0.70;;;;;;;;;;4995780;28;20025;-75
2021/03/30 08:06:24;;;;;;;2.58;0.98;;;;;;;;;;4995651;28;20014;-76
2021/03/30 08:09:10;;;;;;;1.63;0.80;;;;;;;;;;4997426;28;20109;-76
2021/03/30 08:11:57;;;;;;;1.63;0.80;;;;;;;;;;5005506;28;20404;-75
2021/03/30 08:14:28;;;;;;;2.42;0.98;;;;;;;;;;5019174;28;20078;-76
2021/03/30 08:16:55;;;;;;;2.30;0.80;;;;;;;;;;5019098;28;20497;-76
2021/03/30 08:19:24;;;;;;;1.80;0.93;;;;;;;;;;5036807;28;20026;-75
2021/03/30 08:21:54;;;;;;;2.40;0.90;;;;;;;;;;4993853;28;20096;-76
2021/03/30 08:24:20;;;;;;;2.05;1.00;;;;;;;;;;5002852;28;20097;-76
2021/03/30 08:26:46;;;;;;;2.00;0.90;;;;;;;;;;5012759;28;20014;-76
2021/03/30 08:29:15;;;;;;;1.00;0.60;;;;;;;;;;4999628;28;20033;-76
2021/03/30 08:31:51;;;;;;;2.13;0.90;;;;;;;;;;4983295;28;20473;-76
2021/03/30 08:34:24;;;;;;;1.65;0.98;;;;;;;;;;4987271;28;20033;-75
2021/03/30 08:36:50;;;;;;;1.50;0.80;;;;;;;;;;5015157;28;20029;-76
2021/03/30 08:39:19;;;;;;;1.48;0.82;;;;;;;;;;4999047;28;20076;-76
2021/03/30 08:41:48;;;;;;;1.25;0.85;;;;;;;;;;5022547;28;20033;-76
2021/03/30 08:44:17;;;;;;;1.63;0.85;;;;;;;;;;5012771;28;20432;-76
2021/03/30 08:46:53;;;;;;;1.75;0.80;;;;;;;;;;5001699;28;20026;-75
2021/03/30 08:49:22;;;;;;;2.05;1.00;;;;;;;;;;5002494;28;20072;-76
2021/03/30 08:51:47;;;;;;;1.73;0.82;;;;;;;;;;5019066;28;20026;-76
2021/03/30 08:54:13;;;;;;;1.67;0.90;;;;;;;;;;5017928;28;20075;-76
2021/03/30 08:56:40;;;;;;;1.83;0.80;;;;;;;;;;5014872;28;20113;-76
2021/03/30 08:59:06;;;;;;;1.80;1.00;;;;;;;;;;5001969;28;20096;-76
2021/03/30 09:01:31;;;;;;;1.77;0.97;;;;;;;;;;5001928;28;20413;-76
2021/03/30 09:03:56;;;;;;;2.50;0.97;;;;;;;;;;5017875;28;20029;-76
2021/03/30 09:06:38;;;;;;;1.97;0.80;;;;;;;;;;5017933;28;20057;-76
2021/03/30 09:09:04;;;;;;;1.90;0.90;;;;;;;;;;5019017;28;20032;-76
2021/03/30 09:11:35;;;;;;;1.50;0.80;;;;;;;;;;5018356;28;20025;-76
2021/03/30 09:14:05;;;;;;;1.85;0.90;;;;;;;;;;5002590;28;20104;-76
2021/03/30 09:16:30;;;;;;;1.92;1.02;;;;;;;;;;5001427;28;20034;-76
2021/03/30 09:19:22;;;;;;;1.87;1.03;;;;;;;;;;5017827;28;20056;-76
2021/03/30 09:21:59;;;;;;;1.30;0.82;;;;;;;;;;5034400;28;20029;-76
2021/03/30 09:24:44;;;;;;;2.55;0.98;;;;;;;;;;5003114;28;20040;-76
2021/03/30 09:27:10;;;;;;;1.65;0.80;;;;;;;;;;4990311;28;20031;-76
2021/03/30 09:29:36;;;;;;;1.87;0.83;;;;;;;;;;5001408;28;20120;-76
2021/03/30 09:32:05;;;;;;;1.37;0.90;;;;;;;;;;4985148;28;20117;-75
2021/03/30 09:34:31;;;;;;;2.00;1.00;;;;;;;;;;5016857;28;20100;-76
2021/03/30 09:36:57;;;;;;;1.30;0.80;;;;;;;;;;5017407;28;20108;-76
2021/03/30 09:39:23;;;;;;;2.33;0.98;;;;;;;;;;5000487;28;20412;-76
2021/03/30 09:41:49;;;;;;;1.67;1.00;;;;;;;;;;4996888;28;20041;-76
2021/03/30 09:44:18;;;;;;;1.65;0.90;;;;;;;;;;5000605;28;20477;-76
2021/03/30 09:46:45;;;;;;;1.80;1.02;;;;;;;;;;4983992;28;20527;-76
2021/03/30 09:49:11;;;;;;;1.58;0.80;;;;;;;;;;5001264;28;20139;-76
2021/03/30 09:51:37;;;;;;;2.28;1.00;;;;;;;;;;5017350;28;20052;-77
2021/03/30 09:54:20;;;;;;;1.90;0.85;;;;;;;;;;5001361;28;20369;-77
2021/03/30 09:56:45;;;;;;;2.17;1.10;;;;;;;;;;5003439;28;20025;-78
2021/03/30 09:59:11;;;;;;;1.40;0.90;;;;;;;;;;5020042;28;20056;-78
2021/03/30 10:01:36;;;;;;;2.38;0.95;;;;;;;;;;5004109;28;20409;-77
2021/03/30 10:04:02;;;;;;;1.33;0.77;;;;;;;;;;5003583;28;20103;-78
2021/03/30 10:06:28;;;;;;;1.30;0.83;;;;;;;;;;5002320;23;20108;-89
2021/03/30 10:09:04;;;;;;;1.63;0.90;;;;;;;;;;4999766;28;20094;-89
2021/03/30 10:11:30;;;;;;;1.50;0.90;;;;;;;;;;4985290;28;20059;-89
2021/03/30 10:13:55;;;;;;;1.80;0.97;;;;;;;;;;5001230;28;20124;-88
2021/03/30 10:16:21;;;;;;;2.43;1.03;;;;;;;;;;4984494;28;20394;-89
2021/03/30 10:18:46;;;;;;;2.20;1.00;;;;;;;;;;5000269;28;20117;-88
2021/03/30 10:21:15;;;;;;;1.27;0.83;;;;;;;;;;4984531;28;20057;-89
2021/03/30 10:23:44;;;;;;;2.13;1.00;;;;;;;;;;5001200;28;20032;-89
2021/03/30 10:26:13;;;;;;;1.77;0.93;;;;;;;;;;5000033;28;20021;-88
2021/03/30 10:28:39;;;;;;;1.85;0.90;;;;;;;;;;4999815;28;20022;-89
2021/03/30 10:31:08;;;;;;;3.10;1.00;;;;;;;;;;4984293;28;20511;-89
2021/03/30 10:33:38;;;;;;;1.55;0.90;;;;;;;;;;5017582;28;20059;-89
2021/03/30 10:36:03;;;;;;;2.03;1.00;;;;;;;;;;4984980;28;20480;-89
2021/03/30 10:38:29;;;;;;;1.83;0.87;;;;;;;;;;5017339;28;20095;-88
2021/03/30 10:41:10;;;;;;;1.87;0.90;;;;;;;;;;4983898;28;20048;-89
2021/03/30 10:43:36;;;;;;;1.58;0.80;;;;;;;;;;5000640;28;20041;-87
2021/03/30 10:46:14;;;;;;;1.60;0.90;;;;;;;;;;4984069;28;20481;-89
2021/03/30 10:49:02;;;;;;;1.58;0.90;;;;;;;;;;4985222;28;20022;-88
2021/03/30 10:51:29;;;;;;;1.88;0.98;;;;;;;;;;4984661;28;20026;-88
2021/03/30 10:53:55;;;;;;;1.65;0.98;;;;;;;;;;5016674;28;20132;-88
2021/03/30 10:56:20;;;;;;;1.43;0.80;;;;;;;;;;4983459;28;20095;-88
2021/03/30 10:58:45;;;;;;;1.40;0.90;;;;;;;;;;4984242;28;20179;-88
2021/03/30 11:01:11;;;;;;;1.80;1.10;;;;;;;;;;4983780;28;20384;-88
2021/03/30 11:03:36;;;;;;;1.37;0.80;;;;;;;;;;5000120;28;20033;-89
2021/03/30 11:06:02;;;;;;;1.47;0.70;;;;;;;;;;4980148;28;20025;-91
2021/03/30 11:08:27;;;;;;;1.23;0.80;;;;;;;;;;4997642;28;20032;-91
2021/03/30 11:10:53;;;;;;;1.50;0.93;;;;;;;;;;4983576;28;20444;-90
2021/03/30 11:13:18;;;;;;;1.50;0.90;;;;;;;;;;4980345;28;20048;-92
2021/03/30 11:15:43;;;;;;;1.70;0.90;;;;;;;;;;4981184;28;20097;-90
2021/03/30 11:18:09;;;;;;;1.50;0.87;;;;;;;;;;4971528;28;20071;-90
2021/03/30 11:20:34;;;;;;;2.77;1.00;;;;;;;;;;4999872;28;20034;-89
2021/03/30 11:23:01;;;;;;;1.30;0.80;;;;;;;;;;4983625;28;20503;-91
2021/03/30 11:25:26;;;;;;;1.20;0.80;;;;;;;;;;4988337;28;20071;-87
2021/03/30 11:27:55;;;;;;;1.37;0.90;;;;;;;;;;4989829;28;20021;-87
2021/03/30 11:30:26;;;;;;;2.08;0.90;;;;;;;;;;4990433;28;20082;-87
2021/03/30 11:33:07;;;;;;;1.60;0.85;;;;;;;;;;4985566;28;20033;-88
2021/03/30 11:35:45;;;;;;;1.60;0.70;;;;;;;;;;4987128;28;20432;-88
2021/03/30 11:38:11;;;;;;;2.05;1.05;;;;;;;;;;5003107;28;20469;-88
2021/03/30 11:40:37;;;;;;;1.83;1.02;;;;;;;;;;4989465;28;20056;-87
2021/03/30 11:43:02;;;;;;;1.73;0.87;;;;;;;;;;4989375;28;20431;-87
2021/03/30 11:45:28;;;;;;;1.83;0.93;;;;;;;;;;4989060;28;20029;-88
2021/03/30 11:47:53;;;;;;;1.33;0.83;;;;;;;;;;4983798;28;20026;-88
2021/03/30 11:50:18;;;;;;;2.30;0.97;;;;;;;;;;5001345;28;20536;-88
2021/03/30 11:52:44;;;;;;;1.53;1.00;;;;;;;;;;4999146;28;20032;-88
2021/03/30 11:55:13;;;;;;;1.40;0.80;;;;;;;;;;4989541;28;20049;-87
2021/03/30 11:57:39;;;;;;;2.08;1.00;;;;;;;;;;4986366;28;20314;-88
2021/03/30 12:00:05;;;;;;;;;;;;;;;;;;5015935;28;20033;-88
2021/03/30 12:02:30;;;;;;;2.10;1.10;;;;;;;;;;5015792;28;19909;-88
2021/03/30 12:04:56;;;;;;;1.70;1.00;;;;;;;;;;4999044;28;20029;-88
2021/03/30 12:07:21;;;;;;;1.67;0.87;;;;;;;;;;4983035;28;20057;-89
2021/03/30 12:09:47;;;;;;;2.43;1.10;;;;;;;;;;4999911;28;20092;-89
2021/03/30 12:12:12;;;;;;;1.40;0.77;;;;;;;;;;4984137;28;20171;-89
2021/03/30 12:14:37;;;;;;;1.30;0.90;;;;;;;;;;4984797;28;20495;-88
2021/03/30 12:17:03;;;;;;;1.50;0.90;;;;;;;;;;4983828;28;20447;-89
2021/03/30 12:19:29;;;;;;;1.50;0.90;;;;;;;;;;4999309;28;20037;-89
2021/03/30 12:21:54;;;;;;;1.50;0.90;;;;;;;;;;4999093;28;20726;-90
2021/03/30 12:24:19;;;;;;;2.00;1.17;;;;;;;;;;4983073;28;20117;-90
2021/03/30 12:26:45;;;;;;;2.03;0.90;;;;;;;;;;4982681;28;20014;-91
2021/03/30 12:29:10;;;;;;;1.47;0.80;;;;;;;;;;4983221;28;20056;-92
2021/03/30 12:31:36;;;;;;;1.70;0.90;;;;;;;;;;4983142;28;20048;-91
2021/03/30 12:34:01;;;;;;;2.03;0.90;;;;;;;;;;4999635;28;20056;-89
2021/03/30 12:36:26;;;;;;;1.57;0.87;;;;;;;;;;4982753;28;20080;-89
2021/03/30 12:38:52;;;;;;;1.50;0.80;;;;;;;;;;4982323;28;20026;-88
2021/03/30 12:41:17;;;;;;;2.27;0.90;;;;;;;;;;4982738;28;20120;-89
2021/03/30 12:43:42;;;;;;;2.13;1.00;;;;;;;;;;4998838;28;20104;-88
2021/03/30 12:46:09;;;;;;;1.67;0.90;;;;;;;;;;4998573;28;20510;-89
2021/03/30 12:48:34;;;;;;;1.60;1.00;;;;;;;;;;4983898;28;20029;-89
2021/03/30 12:50:59;;;;;;;1.50;0.90;;;;;;;;;;4983152;28;20063;-89
2021/03/30 12:53:25;;;;;;;4.03;1.17;;;;;;;;;;4982306;28;20116;-89
2021/03/30 12:55:50;;;;;;;2.17;1.13;;;;;;;;;;4983532;28;20025;-89
2021/03/30 12:58:15;;;;;;;2.13;1.20;;;;;;;;;;5002209;28;20196;-90
2021/03/30 13:00:41;;;;;;;1.87;0.83;;;;;;;;;;4986326;28;20495;-88
2021/03/30 13:03:06;;;;;;;5.80;1.40;;;;;;;;;;4985869;28;20460;-90
2021/03/30 13:05:32;;;;;;;3.93;1.10;;;;;;;;;;5002189;28;20028;-90
2021/03/30 13:07:57;;;;;;;2.53;1.20;;;;;;;;;;4985689;28;20108;-90
2021/03/30 13:10:22;;;;;;;2.83;1.10;;;;;;;;;;4986153;28;20392;-88
2021/03/30 13:12:48;;;;;;;2.27;0.90;;;;;;;;;;5002447;28;20104;-89
2021/03/30 13:15:16;;;;;;;2.70;1.10;;;;;;;;;;4985921;28;20049;-89
2021/03/30 13:17:42;;;;;;;3.55;1.08;;;;;;;;;;5002241;28;20164;-90
2021/03/30 13:20:08;;;;;;;2.17;1.00;;;;;;;;;;4985755;28;20500;-89
2021/03/30 13:22:33;;;;;;;1.57;0.80;;;;;;;;;;5018410;28;20116;-88
2021/03/30 13:25:03;;;;;;;3.07;0.93;;;;;;;;;;4985525;28;20021;-89
2021/03/30 13:27:29;;;;;;;2.10;1.00;;;;;;;;;;4986253;28;20025;-89
2021/03/30 13:29:54;;;;;;;2.50;0.90;;;;;;;;;;4985595;28;20120;-88
2021/03/30 13:32:19;;;;;;;2.37;1.00;;;;;;;;;;4985547;28;20117;-89
2021/03/30 13:34:46;;;;;;;1.70;0.90;;;;;;;;;;5002027;28;20072;-89
2021/03/30 13:37:12;;;;;;;2.55;1.00;;;;;;;;;;5001654;28;20053;-89
2021/03/30 13:39:38;;;;;;;1.58;0.90;;;;;;;;;;4985649;28;20095;-89
2021/03/30 13:42:04;;;;;;;1.57;1.10;;;;;;;;;;4985518;28;20480;-90
2021/03/30 13:44:29;;;;;;;1.50;1.00;;;;;;;;;;5001771;28;20017;-88
2021/03/30 13:46:59;;;;;;;1.83;0.90;;;;;;;;;;5001772;28;20476;-88
2021/03/30 13:49:28;;;;;;;2.00;1.13;;;;;;;;;;5002778;28;20022;-89
2021/03/30 13:51:53;;;;;;;2.05;0.95;;;;;;;;;;4985943;28;20400;-89
2021/03/30 13:54:19;;;;;;;2.53;1.03;;;;;;;;;;4985196;28;20021;-88
2021/03/30 13:56:44;;;;;;;1.83;1.10;;;;;;;;;;5001625;28;20021;-88
2021/03/30 13:59:10;;;;;;;4.00;1.00;;;;;;;;;;5001386;28;20087;-88
2021/03/30 14:01:36;;;;;;;1.93;1.00;;;;;;;;;;5001413;28;20025;-88
2021/03/30 14:04:01;;;;;;;1.90;0.90;;;;;;;;;;5001335;28;20025;-88
2021/03/30 14:06:26;;;;;;;1.73;0.87;;;;;;;;;;4984556;28;20573;-88
2021/03/30 14:08:52;;;;;;;1.70;0.90;;;;;;;;;;4985146;28;20034;-89
2021/03/30 14:11:19;;;;;;;1.70;1.00;;;;;;;;;;5001346;28;20028;-88
2021/03/30 14:13:57;;;;;;;2.33;0.90;;;;;;;;;;4985432;28;20132;-88
2021/03/30 14:16:32;;;;;;;1.88;1.00;;;;;;;;;;4988090;28;20108;-88
2021/03/30 14:19:07;;;;;;;2.10;1.05;;;;;;;;;;4987434;28;20026;-88
2021/03/30 14:24:09;;;;;;;2.80;1.00;;;;;;;;;;5002165;28;20025;-88
2021/03/30 14:26:36;;;;;;;2.90;0.95;;;;;;;;;;5016986;28;20431;-88
2021/03/30 14:29:02;;;;;;;1.85;1.00;;;;;;;;;;4984950;28;20017;-88
2021/03/30 14:31:27;;;;;;;2.50;0.97;;;;;;;;;;5000856;28;20036;-87
2021/03/30 14:33:53;;;;;;;1.37;0.90;;;;;;;;;;5000768;28;20167;-88
2021/03/30 14:36:19;;;;;;;2.17;0.80;;;;;;;;;;4984288;28;20069;-89
2021/03/30 14:38:45;;;;;;;2.22;0.98;;;;;;;;;;4984342;28;20272;-89
2021/03/30 14:41:11;;;;;;;1.52;1.00;;;;;;;;;;4984678;28;20108;-89
2021/03/30 14:43:45;;;;;;;3.53;1.20;;;;;;;;;;5000617;28;20113;-89
2021/03/30 14:46:35;;;;;;;1.48;0.80;;;;;;;;;;5003155;28;20083;-89
2021/03/30 14:54:28;;;;;;;1.85;0.90;;;;;;;;;;5019430;28;20511;-89
2021/03/30 14:57:04;;;;;;;1.95;0.90;;;;;;;;;;4984228;28;20074;-89